Time;durP1;ratioP1;P1;durP2;ratioP2;P2;SDS_P1;SDS_P2;PMS_P1;PMS_P2;Temp;Humidity;BMP_temperature;BMP_pressure;BME280_temperature;BME280_humidity;BME280_pressure;Samples;Min_cycle;Max_cycle;Signal;HPM_P1;HPM_P2
2023/03/30 00:01:53;;;;;;;0.32;0.32;;;9.50;99.90;;;;;;4376732;32;20079;-75
2023/03/30 00:04:21;;;;;;;1.17;1.05;;;9.60;99.90;;;;;;4373727;32;20547;-75
2023/03/30 00:06:47;;;;;;;0.30;0.30;;;9.50;99.90;;;;;;4376984;32;20121;-75
2023/03/30 00:09:13;;;;;;;0.62;0.62;;;9.50;99.90;;;;;;4375112;32;20471;-76
2023/03/30 00:11:38;;;;;;;0.45;0.43;;;9.50;99.90;;;;;;4373672;32;20082;-75
2023/03/30 00:14:04;;;;;;;0.60;0.40;;;9.50;99.90;;;;;;4373350;32;20094;-76
2023/03/30 00:16:30;;;;;;;1.75;0.43;;;9.50;99.90;;;;;;4375693;32;20435;-75
2023/03/30 00:18:56;;;;;;;1.52;0.68;;;9.50;99.90;;;;;;4375495;32;20520;-75
2023/03/30 00:21:21;;;;;;;0.82;0.82;;;9.50;99.90;;;;;;4374303;32;20115;-75
2023/03/30 00:23:47;;;;;;;2.10;1.10;;;9.50;99.90;;;;;;4373604;32;20153;-75
2023/03/30 00:26:14;;;;;;;0.55;0.55;;;9.50;99.90;;;;;;4374880;32;20134;-75
2023/03/30 00:28:39;;;;;;;0.50;0.50;;;9.40;99.90;;;;;;4374872;32;20078;-75
2023/03/30 00:31:05;;;;;;;0.35;0.35;;;9.40;99.90;;;;;;4377184;32;20519;-75
2023/03/30 00:33:31;;;;;;;0.40;0.40;;;9.40;99.90;;;;;;4377064;32;20079;-74
2023/03/30 00:35:57;;;;;;;0.30;0.30;;;9.40;99.90;;;;;;4373735;32;20102;-75
2023/03/30 00:38:25;;;;;;;0.40;0.40;;;9.40;99.90;;;;;;4376350;32;20079;-75
2023/03/30 00:40:53;;;;;;;0.47;0.47;;;9.40;99.90;;;;;;4376193;32;20074;-75
2023/03/30 00:43:20;;;;;;;7.90;1.95;;;9.40;99.90;;;;;;4374463;32;20078;-74
2023/03/30 00:45:45;;;;;;;0.55;0.55;;;9.40;99.90;;;;;;4373916;32;21290;-75
2023/03/30 00:48:18;;;;;;;0.40;0.40;;;9.40;99.90;;;;;;4374732;32;20121;-75
2023/03/30 00:50:48;;;;;;;0.57;0.57;;;9.40;99.90;;;;;;4375214;32;20087;-75
2023/03/30 00:53:16;;;;;;;;;;;9.40;99.90;;;;;;4374212;32;20086;-75
2023/03/30 00:55:44;;;;;;;0.50;0.50;;;9.40;99.90;;;;;;4373416;32;19973;-75
2023/03/30 00:58:12;;;;;;;0.30;0.30;;;9.30;99.90;;;;;;4374360;32;20518;-75
2023/03/30 01:00:39;;;;;;;0.50;0.50;;;9.30;99.90;;;;;;4371244;32;20087;-75
2023/03/30 01:03:13;;;;;;;0.50;0.50;;;9.30;99.90;;;;;;4376923;32;20102;-75
2023/03/30 01:05:41;;;;;;;0.50;0.50;;;9.30;99.90;;;;;;4375293;32;21394;-74
2023/03/30 01:08:07;;;;;;;0.50;0.50;;;9.30;99.90;;;;;;4373387;32;20074;-75
2023/03/30 01:10:34;;;;;;;0.47;0.47;;;9.30;99.90;;;;;;4373066;32;20148;-74
2023/03/30 01:13:02;;;;;;;0.50;0.50;;;9.30;99.90;;;;;;4372813;32;20062;-75
2023/03/30 01:15:33;;;;;;;1.08;0.98;;;9.30;99.90;;;;;;4372399;32;20078;-74
2023/03/30 01:18:23;;;;;;;0.30;0.30;;;9.30;99.90;;;;;;4371983;32;20094;-74
2023/03/30 01:21:02;;;;;;;3.10;0.50;;;9.40;99.90;;;;;;4360465;32;20078;-74
2023/03/30 01:24:09;;;;;;;0.50;0.50;;;9.40;99.90;;;;;;4360445;32;20534;-75
2023/03/30 01:26:46;;;;;;;0.80;0.60;;;9.40;99.90;;;;;;4362207;32;20153;-74
2023/03/30 01:29:40;;;;;;;7.45;1.00;;;9.30;99.90;;;;;;4373525;32;20720;-74
2023/03/30 01:32:34;;;;;;;0.50;0.50;;;9.30;99.90;;;;;;4359361;32;20081;-74
2023/03/30 01:35:27;;;;;;;0.62;0.62;;;9.30;99.90;;;;;;4363000;32;20087;-73
2023/03/30 01:38:21;;;;;;;0.80;0.80;;;9.20;99.90;;;;;;4363406;32;20095;-74
2023/03/30 01:41:06;;;;;;;0.68;0.68;;;9.10;99.90;;;;;;4360846;32;20083;-73
2023/03/30 01:43:40;;;;;;;2.10;1.33;;;9.10;99.90;;;;;;4374983;32;20550;-73
2023/03/30 01:46:16;;;;;;;0.43;0.43;;;9.10;99.90;;;;;;4374101;32;20079;-74
2023/03/30 01:48:51;;;;;;;0.95;0.70;;;9.20;99.90;;;;;;4372753;32;20070;-74
2023/03/30 01:51:22;;;;;;;0.73;0.70;;;9.30;99.90;;;;;;4379841;32;20069;-74
2023/03/30 01:53:56;;;;;;;0.47;0.47;;;9.20;99.90;;;;;;4372938;32;20082;-74
2023/03/30 01:56:28;;;;;;;0.90;0.90;;;9.20;99.90;;;;;;4369840;32;20611;-74
2023/03/30 01:59:01;;;;;;;0.60;0.57;;;9.20;99.90;;;;;;4375348;32;20078;-73
2023/03/30 02:01:32;;;;;;;0.40;0.40;;;9.30;99.90;;;;;;4372723;32;20518;-74
2023/03/30 02:03:59;;;;;;;0.50;0.50;;;9.20;99.90;;;;;;4373646;32;20407;-75
2023/03/30 02:06:39;;;;;;;0.88;0.88;;;9.30;99.90;;;;;;4371822;32;20557;-74
2023/03/30 02:09:09;;;;;;;0.32;0.32;;;9.20;99.90;;;;;;4372671;32;20219;-74
2023/03/30 02:11:37;;;;;;;3.65;0.70;;;9.10;99.90;;;;;;4371964;32;20103;-74
2023/03/30 02:14:04;;;;;;;0.40;0.40;;;9.10;99.90;;;;;;4372594;32;20067;-74
2023/03/30 02:16:36;;;;;;;0.30;0.30;;;9.10;99.90;;;;;;4372679;32;20537;-75
2023/03/30 02:19:03;;;;;;;0.70;0.70;;;9.10;99.90;;;;;;4373990;32;20097;-74
2023/03/30 02:21:30;;;;;;;0.98;0.93;;;9.10;99.90;;;;;;4372813;32;20070;-74
2023/03/30 02:23:57;;;;;;;0.60;0.60;;;9.10;99.90;;;;;;4372894;32;20066;-74
2023/03/30 02:26:23;;;;;;;0.47;0.47;;;9.00;99.90;;;;;;4374182;32;20073;-74
2023/03/30 02:28:50;;;;;;;0.60;0.52;;;9.00;99.90;;;;;;4374858;32;20521;-75
2023/03/30 02:31:16;;;;;;;0.60;0.60;;;9.10;99.90;;;;;;4372512;32;20146;-74
2023/03/30 02:33:57;;;;;;;0.40;0.40;;;9.10;99.90;;;;;;4375465;32;20090;-74
2023/03/30 02:36:51;;;;;;;0.30;0.30;;;9.20;99.90;;;;;;4372856;32;20122;-74
2023/03/30 02:39:46;;;;;;;0.55;0.55;;;9.20;99.90;;;;;;4358072;32;20074;-74
2023/03/30 02:42:37;;;;;;;0.73;0.73;;;9.20;99.90;;;;;;4360429;32;20091;-74
2023/03/30 02:45:30;;;;;;;0.50;0.50;;;9.20;99.90;;;;;;4361237;32;20102;-73
2023/03/30 02:48:20;;;;;;;0.50;0.50;;;9.10;99.90;;;;;;4361579;32;20059;-73
2023/03/30 02:51:14;;;;;;;0.33;0.33;;;9.20;99.90;;;;;;4353777;32;20591;-76
2023/03/30 02:53:48;;;;;;;0.50;0.50;;;9.20;99.90;;;;;;4362370;32;20140;-74
2023/03/30 02:56:23;;;;;;;0.88;0.88;;;9.20;99.90;;;;;;4372397;32;20071;-74
2023/03/30 02:58:59;;;;;;;0.40;0.40;;;9.20;99.90;;;;;;4373876;32;20184;-74
2023/03/30 03:01:31;;;;;;;0.40;0.40;;;9.20;99.90;;;;;;4375361;32;20132;-74
2023/03/30 03:03:58;;;;;;;0.50;0.50;;;9.20;99.90;;;;;;4372103;32;20066;-76
2023/03/30 03:06:25;;;;;;;0.50;0.50;;;9.20;99.90;;;;;;4372814;32;20502;-74
2023/03/30 03:08:53;;;;;;;0.60;0.60;;;9.20;99.90;;;;;;4369409;32;20563;-74
2023/03/30 03:11:19;;;;;;;0.55;0.55;;;9.20;99.90;;;;;;4369375;32;20622;-75
2023/03/30 03:13:44;;;;;;;0.60;0.60;;;9.20;99.90;;;;;;4373447;32;20335;-75
2023/03/30 03:16:11;;;;;;;0.57;0.57;;;9.20;99.90;;;;;;4372111;32;20098;-75
2023/03/30 03:18:38;;;;;;;0.68;0.68;;;9.20;99.90;;;;;;4373638;32;20083;-76
2023/03/30 03:21:05;;;;;;;0.50;0.50;;;9.20;99.90;;;;;;4372558;32;20106;-75
2023/03/30 03:23:31;;;;;;;0.40;0.40;;;9.30;99.90;;;;;;4369400;32;20086;-75
2023/03/30 03:25:56;;;;;;;0.70;0.70;;;9.30;99.90;;;;;;4370087;32;20070;-75
2023/03/30 03:28:22;;;;;;;4.95;1.60;;;9.30;99.90;;;;;;4372192;32;20107;-75
2023/03/30 03:30:48;;;;;;;1.08;0.50;;;9.20;99.90;;;;;;4373751;32;20099;-74
2023/03/30 03:33:13;;;;;;;1.45;0.80;;;9.20;99.90;;;;;;4373211;32;20091;-76
2023/03/30 03:35:39;;;;;;;0.50;0.50;;;9.20;99.90;;;;;;4372784;32;20074;-74
2023/03/30 03:38:06;;;;;;;1.67;0.80;;;9.20;99.90;;;;;;4369799;32;20087;-75
2023/03/30 03:40:32;;;;;;;0.60;0.60;;;9.20;99.90;;;;;;4370560;32;20117;-76
2023/03/30 03:42:57;;;;;;;0.37;0.37;;;9.20;99.90;;;;;;4373545;32;20070;-75
2023/03/30 03:45:23;;;;;;;0.50;0.50;;;9.20;99.90;;;;;;4370801;32;20070;-75
2023/03/30 03:47:50;;;;;;;3.67;0.62;;;9.20;99.90;;;;;;4376401;32;20091;-75
2023/03/30 03:50:16;;;;;;;1.65;0.95;;;9.10;99.90;;;;;;4374667;32;20094;-73
2023/03/30 03:52:41;;;;;;;2.85;1.48;;;9.20;99.90;;;;;;4374828;32;20459;-75
2023/03/30 03:55:07;;;;;;;0.30;0.30;;;9.20;99.90;;;;;;4373927;32;20063;-76
2023/03/30 03:57:33;;;;;;;0.30;0.30;;;9.20;99.90;;;;;;4373923;32;20078;-75
2023/03/30 03:59:58;;;;;;;0.57;0.57;;;9.30;99.90;;;;;;4374606;32;21189;-76
2023/03/30 04:02:25;;;;;;;0.50;0.50;;;9.30;99.90;;;;;;4374900;32;20070;-74
2023/03/30 04:04:52;;;;;;;0.50;0.50;;;9.30;99.90;;;;;;4374049;32;20110;-75
2023/03/30 04:07:18;;;;;;;1.12;0.98;;;9.30;99.90;;;;;;4374612;32;20540;-75
2023/03/30 04:09:43;;;;;;;3.22;0.70;;;9.30;99.90;;;;;;4369950;32;20087;-75
2023/03/30 04:12:09;;;;;;;0.60;0.60;;;9.30;99.90;;;;;;4377395;32;20070;-75
2023/03/30 04:14:34;;;;;;;0.77;0.77;;;9.40;99.90;;;;;;4376153;32;20142;-75
2023/03/30 04:17:00;;;;;;;0.45;0.45;;;9.30;99.90;;;;;;4377574;32;20121;-75
2023/03/30 04:19:26;;;;;;;1.25;0.50;;;9.30;99.90;;;;;;4376302;32;20110;-75
2023/03/30 04:21:54;;;;;;;1.25;0.90;;;9.20;99.90;;;;;;4368962;32;20083;-76
2023/03/30 04:24:21;;;;;;;0.70;0.70;;;9.30;99.90;;;;;;4374192;32;20071;-75
2023/03/30 04:26:47;;;;;;;0.60;0.60;;;9.20;99.90;;;;;;4377168;32;20066;-75
2023/03/30 04:29:16;;;;;;;0.80;0.80;;;9.20;99.90;;;;;;4377403;32;20071;-75
2023/03/30 04:31:45;;;;;;;0.55;0.55;;;9.20;99.90;;;;;;4377873;32;20089;-76
2023/03/30 04:34:12;;;;;;;0.60;0.60;;;9.20;99.90;;;;;;4377959;32;20581;-76
2023/03/30 04:36:42;;;;;;;3.80;1.48;;;9.10;99.90;;;;;;4376984;32;20075;-75
2023/03/30 04:39:09;;;;;;;0.98;0.60;;;9.10;99.90;;;;;;4375093;32;20063;-75
2023/03/30 04:41:36;;;;;;;0.50;0.50;;;9.10;99.90;;;;;;4375701;32;20066;-75
2023/03/30 04:44:05;;;;;;;0.98;0.50;;;9.10;99.90;;;;;;4375702;32;20066;-75
2023/03/30 04:46:31;;;;;;;0.60;0.60;;;9.10;99.90;;;;;;4374757;32;20554;-76
2023/03/30 04:48:57;;;;;;;3.12;0.82;;;9.10;99.90;;;;;;4377733;32;20117;-75
2023/03/30 04:51:22;;;;;;;2.42;0.90;;;9.10;99.90;;;;;;4376757;32;20508;-75
2023/03/30 04:53:48;;;;;;;2.20;1.25;;;9.10;99.90;;;;;;4373355;32;20097;-75
2023/03/30 04:56:14;;;;;;;0.40;0.40;;;9.10;99.90;;;;;;4373542;32;20094;-76
2023/03/30 04:58:39;;;;;;;1.85;0.75;;;9.10;99.90;;;;;;4376760;32;20098;-75
2023/03/30 05:01:05;;;;;;;2.03;1.05;;;9.10;99.90;;;;;;4370311;32;20552;-75
2023/03/30 05:03:30;;;;;;;0.32;0.32;;;9.10;99.90;;;;;;4371874;32;20115;-74
2023/03/30 05:05:56;;;;;;;1.00;0.70;;;9.10;99.90;;;;;;4373809;32;20121;-74
2023/03/30 05:08:22;;;;;;;0.88;0.88;;;9.00;99.90;;;;;;4375621;32;20101;-75
2023/03/30 05:10:48;;;;;;;0.52;0.52;;;9.00;99.90;;;;;;4373571;32;20089;-75
2023/03/30 05:13:14;;;;;;;0.60;0.60;;;9.00;99.90;;;;;;4373381;32;20061;-74
2023/03/30 05:15:39;;;;;;;1.85;0.90;;;9.00;99.90;;;;;;4373708;32;20087;-74
2023/03/30 05:18:05;;;;;;;0.70;0.70;;;9.10;99.90;;;;;;4363433;32;20086;-74
2023/03/30 05:20:31;;;;;;;1.50;0.95;;;9.20;99.90;;;;;;4373556;32;20098;-74
2023/03/30 05:22:56;;;;;;;2.33;1.08;;;9.20;99.90;;;;;;4375130;32;20062;-74
2023/03/30 05:25:22;;;;;;;0.82;0.82;;;9.10;99.90;;;;;;4370707;32;20195;-76
2023/03/30 05:27:47;;;;;;;0.55;0.55;;;9.20;99.90;;;;;;4360596;32;20552;-75
2023/03/30 05:30:13;;;;;;;0.62;0.62;;;9.20;99.90;;;;;;4360623;32;20714;-76
2023/03/30 05:32:39;;;;;;;2.37;1.20;;;9.30;99.90;;;;;;4354037;32;20511;-75
2023/03/30 05:35:05;;;;;;;1.23;0.70;;;9.30;99.90;;;;;;4372205;32;20134;-74
2023/03/30 05:37:31;;;;;;;0.62;0.60;;;9.30;99.90;;;;;;4366239;32;20610;-76
2023/03/30 05:39:56;;;;;;;0.55;0.55;;;9.30;99.90;;;;;;4369304;32;20126;-75
2023/03/30 05:42:22;;;;;;;1.25;0.75;;;9.30;99.90;;;;;;4371773;32;20141;-74
2023/03/30 05:44:49;;;;;;;2.90;0.90;;;9.20;99.90;;;;;;4369847;32;20910;-76
2023/03/30 05:47:15;;;;;;;0.62;0.62;;;9.30;99.90;;;;;;4365897;32;20106;-74
2023/03/30 05:49:41;;;;;;;0.50;0.50;;;9.30;99.90;;;;;;4368831;32;20065;-73
2023/03/30 05:52:07;;;;;;;0.40;0.40;;;9.30;99.90;;;;;;4367219;32;20396;-73
2023/03/30 05:54:32;;;;;;;1.05;0.88;;;9.20;99.90;;;;;;4364752;32;20075;-74
2023/03/30 05:56:58;;;;;;;0.50;0.50;;;9.10;99.90;;;;;;4367911;32;20539;-75
2023/03/30 05:59:24;;;;;;;1.12;1.02;;;9.20;99.90;;;;;;4365959;32;20069;-76
2023/03/30 06:01:49;;;;;;;0.52;0.52;;;9.30;99.90;;;;;;4359784;32;20129;-75
2023/03/30 06:04:15;;;;;;;0.40;0.40;;;9.20;99.90;;;;;;4360553;32;20086;-75
2023/03/30 06:06:41;;;;;;;0.50;0.50;;;9.30;99.90;;;;;;4364465;32;20143;-74
2023/03/30 06:09:06;;;;;;;0.40;0.40;;;9.30;99.90;;;;;;4366508;32;20152;-72
2023/03/30 06:11:32;;;;;;;0.43;0.43;;;9.30;99.90;;;;;;4366824;32;20129;-72
2023/03/30 06:13:58;;;;;;;0.43;0.43;;;9.20;99.90;;;;;;4370180;32;20451;-74
2023/03/30 06:16:24;;;;;;;0.47;0.47;;;9.30;99.90;;;;;;4372043;32;20098;-73
2023/03/30 06:18:50;;;;;;;0.57;0.50;;;9.30;99.90;;;;;;4370562;32;20111;-74
2023/03/30 06:21:16;;;;;;;0.60;0.60;;;9.30;99.90;;;;;;4371509;32;20069;-74
2023/03/30 06:23:41;;;;;;;0.30;0.30;;;9.30;99.90;;;;;;4371365;32;21344;-74
2023/03/30 06:26:08;;;;;;;0.57;0.52;;;9.30;99.90;;;;;;4362411;32;20084;-74
2023/03/30 06:28:34;;;;;;;0.60;0.60;;;9.40;99.90;;;;;;4366799;32;20849;-73
2023/03/30 06:31:01;;;;;;;0.50;0.50;;;9.50;99.90;;;;;;4364428;32;20206;-74
2023/03/30 06:33:27;;;;;;;0.73;0.73;;;9.50;99.90;;;;;;4366502;32;20232;-72
2023/03/30 06:35:53;;;;;;;1.27;1.12;;;9.50;99.90;;;;;;4365190;32;20159;-73
2023/03/30 06:38:21;;;;;;;0.60;0.60;;;9.60;99.90;;;;;;4366591;32;20546;-74
2023/03/30 06:40:47;;;;;;;0.70;0.70;;;9.60;99.90;;;;;;4368321;32;20085;-75
2023/03/30 06:43:19;;;;;;;1.08;0.80;;;9.70;99.90;;;;;;4363205;32;20547;-72
2023/03/30 06:45:54;;;;;;;0.52;0.52;;;9.70;99.90;;;;;;4368461;32;20107;-75
2023/03/30 06:48:22;;;;;;;1.30;1.20;;;9.90;99.90;;;;;;4362730;32;20522;-74
2023/03/30 06:50:49;;;;;;;0.88;0.50;;;9.90;99.90;;;;;;4354147;32;20235;-74
2023/03/30 06:53:15;;;;;;;0.40;0.40;;;9.90;99.90;;;;;;4359784;32;20552;-74
2023/03/30 06:55:41;;;;;;;0.82;0.50;;;10.00;99.90;;;;;;4362648;32;20106;-73
2023/03/30 06:58:07;;;;;;;1.35;0.68;;;10.00;99.90;;;;;;4360499;32;20094;-75
2023/03/30 07:00:33;;;;;;;0.50;0.50;;;10.00;99.90;;;;;;4356592;32;20216;-72
2023/03/30 07:02:58;;;;;;;0.30;0.30;;;10.10;99.90;;;;;;4363920;32;20619;-74
2023/03/30 07:05:24;;;;;;;0.68;0.60;;;10.10;99.90;;;;;;4360426;32;20455;-74
2023/03/30 07:07:51;;;;;;;0.70;0.40;;;10.10;99.90;;;;;;4360869;32;20066;-74
2023/03/30 07:10:17;;;;;;;1.17;0.75;;;10.10;99.90;;;;;;4359139;32;20204;-73
2023/03/30 07:12:43;;;;;;;1.02;0.68;;;10.30;99.90;;;;;;4359600;32;20459;-74
2023/03/30 07:15:09;;;;;;;0.47;0.47;;;10.30;99.90;;;;;;4354498;32;20079;-73
2023/03/30 07:17:36;;;;;;;0.55;0.55;;;10.40;99.90;;;;;;4358562;32;20083;-74
2023/03/30 07:20:02;;;;;;;2.53;1.40;;;10.50;99.90;;;;;;4359762;32;20134;-73
2023/03/30 07:22:28;;;;;;;0.30;0.30;;;10.70;99.90;;;;;;4360276;32;20078;-73
2023/03/30 07:24:54;;;;;;;0.40;0.40;;;10.80;99.90;;;;;;4357817;32;20115;-74
2023/03/30 07:27:23;;;;;;;0.47;0.47;;;10.90;99.90;;;;;;4368363;32;20589;-73
2023/03/30 07:29:49;;;;;;;0.45;0.45;;;10.90;99.90;;;;;;4366515;32;20050;-75
2023/03/30 07:32:15;;;;;;;0.35;0.35;;;10.90;99.90;;;;;;4399266;27;20111;-63
2023/03/30 07:34:41;;;;;;;0.40;0.40;;;11.00;99.90;;;;;;4379654;32;20181;-59
2023/03/30 07:37:06;;;;;;;2.00;1.25;;;11.10;99.90;;;;;;4378018;32;20093;-63
2023/03/30 07:39:32;;;;;;;0.40;0.40;;;11.20;99.90;;;;;;4378569;32;20101;-60
2023/03/30 07:41:58;;;;;;;1.23;0.68;;;11.20;99.90;;;;;;4366139;32;20568;-61
2023/03/30 07:44:27;;;;;;;0.82;0.82;;;11.40;99.90;;;;;;4379215;32;20211;-63
2023/03/30 07:46:53;;;;;;;3.50;0.73;;;11.50;99.90;;;;;;4365411;32;20106;-65
2023/03/30 07:49:19;;;;;;;2.12;0.82;;;11.60;99.90;;;;;;4357676;32;20112;-64
2023/03/30 07:51:45;;;;;;;0.30;0.30;;;11.80;99.90;;;;;;4358740;32;20269;-63
2023/03/30 07:54:10;;;;;;;1.00;0.60;;;11.90;99.90;;;;;;4362577;32;20098;-65
2023/03/30 07:56:38;;;;;;;0.62;0.45;;;12.00;99.90;;;;;;4363387;32;20115;-63
2023/03/30 07:59:04;;;;;;;0.60;0.60;;;12.20;99.90;;;;;;4362301;32;20107;-62
2023/03/30 08:01:31;;;;;;;3.53;1.45;;;12.30;99.90;;;;;;4356778;32;20102;-63
2023/03/30 08:03:57;;;;;;;0.68;0.68;;;12.50;99.90;;;;;;4362149;32;20094;-61
2023/03/30 08:06:23;;;;;;;0.52;0.52;;;12.70;99.90;;;;;;4376116;32;20114;-64
2023/03/30 08:08:48;;;;;;;0.40;0.40;;;12.80;99.90;;;;;;4372583;32;20106;-64
2023/03/30 08:11:15;;;;;;;0.93;0.57;;;12.90;99.90;;;;;;4371969;32;20074;-63
2023/03/30 08:13:40;;;;;;;1.17;1.05;;;12.90;99.90;;;;;;4367807;32;20822;-62
2023/03/30 08:16:07;;;;;;;0.45;0.45;;;13.10;99.90;;;;;;4371059;32;20098;-66
2023/03/30 08:18:33;;;;;;;0.50;0.50;;;13.20;99.90;;;;;;4378565;32;20098;-66
2023/03/30 08:20:59;;;;;;;1.45;0.73;;;13.30;99.90;;;;;;4380985;32;20538;-65
2023/03/30 08:23:24;;;;;;;0.50;0.50;;;13.30;99.90;;;;;;4379462;32;20091;-66
2023/03/30 08:25:51;;;;;;;0.47;0.47;;;13.30;99.90;;;;;;4368467;32;20114;-65
2023/03/30 08:28:18;;;;;;;0.62;0.62;;;13.40;99.90;;;;;;4374682;32;20090;-65
2023/03/30 08:30:44;;;;;;;0.40;0.40;;;13.50;99.90;;;;;;4364324;32;20162;-65
2023/03/30 08:33:10;;;;;;;0.50;0.50;;;13.60;99.90;;;;;;4383234;32;20067;-61
2023/03/30 08:35:35;;;;;;;1.02;0.52;;;13.70;99.90;;;;;;4375729;32;20094;-63
2023/03/30 08:38:01;;;;;;;0.50;0.50;;;13.90;99.90;;;;;;4383217;32;20065;-65
2023/03/30 08:40:26;;;;;;;3.00;0.77;;;14.10;99.90;;;;;;4379110;32;20094;-64
2023/03/30 08:43:21;;;;;;;8.50;0.98;;;14.30;99.90;;;;;;4363473;32;20094;-65
2023/03/30 08:45:47;;;;;;;0.43;0.43;;;14.40;99.90;;;;;;4351618;32;20090;-61
2023/03/30 08:48:19;;;;;;;0.45;0.45;;;14.50;99.90;;;;;;4375773;32;20868;-65
2023/03/30 08:50:55;;;;;;;0.40;0.40;;;14.60;99.90;;;;;;4370342;32;20082;-63
2023/03/30 08:53:21;;;;;;;2.40;1.52;;;14.60;99.90;;;;;;4365966;32;20094;-65
2023/03/30 08:55:52;;;;;;;0.60;0.60;;;14.70;99.90;;;;;;4376875;32;20115;-65
2023/03/30 08:58:43;;;;;;;0.60;0.60;;;14.70;99.90;;;;;;4367891;32;21153;-64
2023/03/30 09:01:37;;;;;;;0.55;0.55;;;14.80;99.90;;;;;;4369522;32;20094;-65
2023/03/30 09:04:09;;;;;;;0.30;0.30;;;15.00;99.90;;;;;;4365235;32;20527;-64
2023/03/30 09:06:53;;;;;;;1.35;0.90;;;14.90;99.90;;;;;;4374889;32;20173;-65
2023/03/30 09:09:23;;;;;;;0.52;0.52;;;14.80;99.90;;;;;;4370013;32;20089;-61
2023/03/30 09:12:01;;;;;;;0.45;0.45;;;14.80;99.90;;;;;;4363914;32;20278;-63
2023/03/30 09:14:39;;;;;;;0.62;0.47;;;14.70;99.90;;;;;;4378855;32;20099;-65
2023/03/30 09:17:11;;;;;;;1.33;0.95;;;14.60;99.90;;;;;;4357224;32;20107;-62
2023/03/30 09:20:03;;;;;;;0.50;0.50;;;14.70;99.90;;;;;;4369879;32;20558;-63
2023/03/30 09:22:36;;;;;;;0.88;0.75;;;14.70;99.90;;;;;;4357896;32;20113;-65
2023/03/30 09:25:04;;;;;;;0.40;0.40;;;14.90;99.90;;;;;;4359627;32;20106;-66
2023/03/30 09:27:41;;;;;;;0.98;0.90;;;14.90;99.90;;;;;;4377096;32;20158;-65
2023/03/30 09:30:17;;;;;;;0.40;0.40;;;15.00;99.90;;;;;;4364665;32;20070;-65
2023/03/30 09:32:56;;;;;;;0.43;0.43;;;15.00;99.90;;;;;;4375184;32;20656;-63
2023/03/30 09:35:31;;;;;;;13.45;2.87;;;15.00;99.90;;;;;;4375510;32;20115;-62
2023/03/30 09:37:56;;;;;;;0.37;0.37;;;14.90;99.90;;;;;;4375937;32;20137;-65
2023/03/30 09:40:33;;;;;;;0.65;0.50;;;14.80;99.90;;;;;;4376742;32;20138;-63
2023/03/30 09:43:09;;;;;;;1.05;1.00;;;14.80;99.90;;;;;;4369428;32;20905;-62
2023/03/30 09:45:35;;;;;;;3.42;1.77;;;14.80;99.90;;;;;;4363344;32;20091;-62
2023/03/30 09:48:05;;;;;;;0.60;0.60;;;14.80;99.90;;;;;;4358593;32;20078;-63
2023/03/30 09:50:37;;;;;;;0.40;0.40;;;14.90;99.90;;;;;;4362117;32;20085;-60
2023/03/30 09:53:06;;;;;;;0.60;0.60;;;14.90;99.90;;;;;;4370869;32;20090;-65
2023/03/30 09:55:33;;;;;;;0.60;0.60;;;15.00;99.90;;;;;;4363309;32;20094;-64
2023/03/30 09:58:25;;;;;;;0.50;0.50;;;15.00;99.90;;;;;;4374084;32;20078;-65
2023/03/30 10:01:04;;;;;;;0.30;0.30;;;15.00;99.90;;;;;;4361894;32;20130;-65
2023/03/30 10:03:29;;;;;;;4.25;1.37;;;15.00;99.90;;;;;;4381209;32;20062;-65
2023/03/30 10:06:15;;;;;;;0.73;0.73;;;15.10;99.90;;;;;;4380664;32;20112;-63
2023/03/30 10:08:51;;;;;;;2.60;1.40;;;15.10;99.90;;;;;;4375309;32;20110;-64
2023/03/30 10:11:30;;;;;;;0.40;0.40;;;15.20;99.90;;;;;;4364993;32;20074;-66
2023/03/30 10:13:57;;;;;;;0.47;0.47;;;15.10;99.90;;;;;;4377058;32;20701;-62
2023/03/30 10:16:26;;;;;;;0.30;0.30;;;15.10;99.90;;;;;;4378512;32;20070;-65
2023/03/30 10:18:54;;;;;;;2.28;1.75;;;15.10;99.90;;;;;;4375966;32;20186;-67
2023/03/30 10:21:26;;;;;;;0.55;0.55;;;15.10;99.90;;;;;;4372239;32;20094;-67
2023/03/30 10:24:13;;;;;;;0.40;0.40;;;15.00;99.90;;;;;;4378854;32;20089;-64
2023/03/30 10:26:44;;;;;;;8.75;0.80;;;15.00;99.90;;;;;;4367650;32;20097;-64
2023/03/30 10:29:13;;;;;;;8.23;2.95;;;15.10;99.90;;;;;;4381282;32;20098;-64
2023/03/30 10:31:43;;;;;;;0.40;0.40;;;15.00;99.90;;;;;;4372334;32;20482;-65
2023/03/30 10:34:33;;;;;;;0.35;0.35;;;15.10;99.90;;;;;;4376414;32;20146;-63
2023/03/30 10:36:59;;;;;;;1.70;1.37;;;15.10;99.90;;;;;;4374385;32;20095;-63
2023/03/30 10:39:29;;;;;;;0.68;0.68;;;15.10;99.90;;;;;;4381005;32;20074;-67
2023/03/30 10:41:58;;;;;;;0.65;0.57;;;15.20;99.90;;;;;;4366616;32;20122;-66
2023/03/30 10:44:29;;;;;;;0.40;0.40;;;15.20;99.90;;;;;;4379186;32;20094;-66
2023/03/30 10:47:16;;;;;;;0.47;0.47;;;15.30;99.90;;;;;;4379611;32;20085;-65
2023/03/30 10:49:55;;;;;;;5.68;1.10;;;15.50;99.90;;;;;;4370337;32;20091;-66
2023/03/30 10:52:49;;;;;;;0.40;0.40;;;15.60;99.90;;;;;;4365813;32;20279;-65
2023/03/30 10:55:21;;;;;;;0.47;0.47;;;15.70;99.90;;;;;;4365739;32;20086;-64
2023/03/30 10:58:06;;;;;;;0.55;0.37;;;15.80;99.90;;;;;;4367468;32;20113;-65
2023/03/30 11:00:59;;;;;;;0.40;0.40;;;16.10;99.90;;;;;;4362828;32;20082;-65
2023/03/30 11:03:28;;;;;;;3.30;1.45;;;16.10;99.90;;;;;;4360839;32;20106;-62
2023/03/30 11:05:57;;;;;;;1.52;0.80;;;16.00;99.90;;;;;;4365976;32;20082;-61
2023/03/30 11:08:30;;;;;;;0.50;0.50;;;15.90;99.90;;;;;;4347539;32;20139;-62
2023/03/30 11:10:58;;;;;;;0.50;0.50;;;15.80;99.90;;;;;;4357339;32;20145;-62
2023/03/30 11:13:30;;;;;;;2.53;1.55;;;15.80;99.90;;;;;;4368871;32;20705;-64
2023/03/30 11:16:20;;;;;;;0.80;0.80;;;15.80;99.90;;;;;;4352001;32;20147;-65
2023/03/30 11:19:09;;;;;;;0.80;0.80;;;15.90;99.90;;;;;;4354743;32;20074;-60
2023/03/30 11:22:14;;;;;;;0.88;0.57;;;16.10;99.90;;;;;;4370399;32;20161;-63
2023/03/30 11:24:42;;;;;;;0.40;0.40;;;16.10;99.90;;;;;;4355975;32;20090;-61
2023/03/30 11:27:17;;;;;;;1.10;0.90;;;16.20;99.90;;;;;;4356624;32;20510;-63
2023/03/30 11:29:57;;;;;;;0.65;0.65;;;16.20;99.90;;;;;;4353374;32;20197;-59
2023/03/30 11:33:03;;;;;;;0.60;0.60;;;16.20;99.90;;;;;;4367809;32;20090;-65
2023/03/30 11:35:35;;;;;;;1.52;1.25;;;16.30;99.90;;;;;;4356977;32;20059;-63
2023/03/30 11:38:07;;;;;;;1.35;0.90;;;16.40;99.90;;;;;;4351846;32;20139;-59
2023/03/30 11:40:43;;;;;;;0.57;0.57;;;16.50;99.90;;;;;;4364075;32;20142;-60
2023/03/30 11:43:11;;;;;;;0.40;0.40;;;16.60;99.90;;;;;;4364465;32;109159;-64
2023/03/30 11:46:05;;;;;;;1.40;0.82;;;16.60;99.90;;;;;;4356471;32;20085;-65
2023/03/30 11:48:59;;;;;;;2.50;0.75;;;16.70;99.90;;;;;;4356137;32;20063;-62
2023/03/30 11:51:41;;;;;;;0.60;0.60;;;17.10;99.90;;;;;;4358228;32;20091;-64
2023/03/30 11:54:27;;;;;;;5.68;0.50;;;17.40;99.90;;;;;;4368749;32;20058;-64
2023/03/30 11:57:33;;;;;;;0.75;0.75;;;17.90;99.90;;;;;;4401699;27;20105;-75
2023/03/30 12:00:27;;;;;;;0.52;0.52;;;18.30;99.90;;;;;;4417590;32;20337;-76
2023/03/30 12:03:04;;;;;;;0.45;0.45;;;18.50;99.90;;;;;;4417879;32;20105;-77
2023/03/30 12:05:43;;;;;;;4.03;1.37;;;19.20;99.90;;;;;;4414162;32;20085;-76
2023/03/30 12:08:42;;;;;;;1.52;1.15;;;19.50;99.90;;;;;;4408296;32;20425;-76
2023/03/30 12:11:38;;;;;;;2.17;0.50;;;19.80;99.90;;;;;;4399354;32;20108;-76
2023/03/30 12:14:25;;;;;;;1.00;0.90;;;20.10;99.90;;;;;;4403617;32;20209;-77
2023/03/30 12:16:55;;;;;;;0.37;0.37;;;20.30;99.90;;;;;;4408670;32;20561;-76
2023/03/30 12:19:25;;;;;;;;;;;20.80;99.90;;;;;;4407123;32;20093;-76
2023/03/30 12:21:57;;;;;;;0.50;0.50;;;21.20;99.90;;;;;;4402178;32;19969;-75
2023/03/30 12:24:45;;;;;;;2.50;0.82;;;21.20;99.90;;;;;;4407794;32;20078;-75
2023/03/30 12:27:10;;;;;;;0.40;0.40;;;21.50;99.90;;;;;;4409176;32;21581;-75
2023/03/30 12:29:52;;;;;;;0.52;0.52;;;21.90;99.90;;;;;;4403592;32;20525;-74
2023/03/30 12:32:28;;;;;;;0.55;0.45;;;22.10;99.90;;;;;;4408546;32;20573;-75
2023/03/30 12:34:55;;;;;;;0.50;0.50;;;22.30;99.90;;;;;;4411488;32;20130;-76
2023/03/30 12:37:40;;;;;;;4.45;1.12;;;22.10;99.90;;;;;;4410880;32;20077;-76
2023/03/30 12:40:19;;;;;;;4.93;1.45;;;21.90;99.90;;;;;;4408741;32;20280;-76
2023/03/30 12:42:59;;;;;;;0.45;0.45;;;21.50;99.90;;;;;;4415542;32;20489;-76
2023/03/30 12:45:31;;;;;;;0.30;0.30;;;20.70;99.90;;;;;;4415006;32;20535;-75
2023/03/30 12:48:25;;;;;;;0.40;0.40;;;20.30;99.90;;;;;;4412263;32;20181;-76
2023/03/30 12:51:16;;;;;;;3.10;2.12;;;20.10;99.90;;;;;;4423742;32;20517;-76
2023/03/30 12:54:07;;;;;;;2.25;0.52;;;20.00;99.90;;;;;;4415211;32;20100;-75
2023/03/30 12:56:42;;;;;;;0.50;0.50;;;20.70;99.90;;;;;;4414851;32;20523;-74
2023/03/30 12:59:48;;;;;;;2.70;1.60;;;20.90;99.90;;;;;;4412624;32;20097;-75
2023/03/30 13:02:24;;;;;;;0.40;0.40;;;20.90;99.90;;;;;;4398208;32;20478;-75
2023/03/30 13:04:49;;;;;;;1.20;0.90;;;20.70;99.90;;;;;;4416298;32;20084;-76
2023/03/30 13:07:35;;;;;;;0.35;0.35;;;21.10;99.90;;;;;;4416770;32;20085;-76
2023/03/30 13:10:22;;;;;;;0.98;0.45;;;20.70;99.90;;;;;;4412725;32;20153;-77
2023/03/30 13:12:48;;;;;;;2.78;1.30;;;20.60;99.90;;;;;;4414939;32;20141;-77
2023/03/30 13:15:17;;;;;;;2.75;1.35;;;19.90;99.90;;;;;;4410468;32;20575;-77
2023/03/30 13:18:01;;;;;;;1.02;0.93;;;19.90;99.90;;;;;;4405850;32;20061;-76